Time;durP1;ratioP1;P1;durP2;ratioP2;P2;SDS_P1;SDS_P2;PMS_P1;PMS_P2;Temp;Humidity;BMP_temperature;BMP_pressure;BME280_temperature;BME280_humidity;BME280_pressure;Samples;Min_cycle;Max_cycle;Signal;HPM_P1;HPM_P2
2022/10/22 00:01:00;;;;;;;13.55;8.27;;;;;;;20.89;60.54;101373.03;4999227;28;20136;-81
2022/10/22 00:03:29;;;;;;;14.93;7.50;;;;;;;20.95;60.72;101388.50;5008181;28;20733;-82
2022/10/22 00:05:56;;;;;;;13.27;7.80;;;;;;;20.98;60.54;101388.13;5015745;28;20062;-80
2022/10/22 00:08:23;;;;;;;14.00;8.20;;;;;;;20.88;60.22;101349.78;4998914;28;20056;-82
2022/10/22 00:10:50;;;;;;;12.45;7.78;;;;;;;20.79;60.25;101342.78;5015561;28;20475;-82
2022/10/22 00:13:19;;;;;;;13.73;8.45;;;;;;;21.17;59.70;101391.28;4997531;28;20538;-81
2022/10/22 00:15:49;;;;;;;19.10;8.23;;;;;;;21.17;59.09;101367.00;5009962;28;20054;-83
2022/10/22 00:18:17;;;;;;;15.10;8.27;;;;;;;21.17;59.25;101354.31;4993259;28;20564;-83
2022/10/22 00:20:44;;;;;;;16.05;8.30;;;;;;;21.37;58.90;101376.16;4979614;28;20285;-82
2022/10/22 00:23:11;;;;;;;19.40;8.30;;;;;;;21.44;58.39;101365.50;4981338;28;20516;-81
2022/10/22 00:25:37;;;;;;;13.45;7.65;;;;;;;21.26;58.67;101347.78;4978788;28;20532;-83
2022/10/22 00:28:07;;;;;;;15.02;8.18;;;;;;;21.25;58.45;101332.59;4998413;28;20215;-83
2022/10/22 00:30:36;;;;;;;14.77;7.93;;;;;;;21.47;58.18;101333.50;4996951;28;20208;-83
2022/10/22 00:33:04;;;;;;;18.00;8.30;;;;;;;21.65;57.67;101329.53;4998932;28;20045;-80
2022/10/22 00:35:31;;;;;;;14.35;7.68;;;;;;;21.46;57.68;101312.94;4996787;28;20291;-83
2022/10/22 00:37:59;;;;;;;16.90;8.82;;;;;;;21.65;57.62;101337.66;4981856;28;20524;-83
2022/10/22 00:40:26;;;;;;;21.85;8.82;;;;;;;21.49;57.60;101338.75;4998492;28;20157;-80
2022/10/22 00:43:03;;;;;;;11.75;7.10;;;;;;;21.71;57.62;101372.03;4994215;28;20492;-82
2022/10/22 00:45:36;;;;;;;19.58;8.43;;;;;;;21.67;57.73;101376.13;4995556;28;21111;-82
2022/10/22 00:48:10;;;;;;;16.50;7.70;;;;;;;21.38;57.96;101337.31;4980960;28;20208;-83
2022/10/22 00:50:43;;;;;;;10.63;7.30;;;;;;;21.83;57.38;101378.59;4977801;28;20423;-83
2022/10/22 00:53:19;;;;;;;11.25;6.82;;;;;;;21.42;57.37;101324.31;4958728;28;20673;-83
2022/10/22 00:55:53;;;;;;;16.90;7.53;;;;;;;21.82;57.45;101355.31;4961885;28;20133;-81
2022/10/22 00:58:30;;;;;;;11.38;6.95;;;;;;;21.82;57.58;101341.81;4960363;28;20739;-82
2022/10/22 01:00:57;;;;;;;14.00;7.75;;;;;;;21.43;57.46;101272.78;4975514;28;20242;-81
2022/10/22 01:03:24;;;;;;;20.90;7.28;;;;;;;21.74;57.85;101328.41;4973973;28;20056;-82
2022/10/22 01:05:59;;;;;;;15.95;7.57;;;;;;;21.63;58.26;101321.66;4979014;28;20049;-83
2022/10/22 01:08:44;;;;;;;14.63;6.72;;;;;;;21.66;58.05;101315.03;4980049;28;20607;-81
2022/10/22 01:11:50;;;;;;;18.63;7.88;;;;;;;21.54;58.27;101307.41;4980770;28;20057;-83
2022/10/22 01:14:16;;;;;;;17.40;7.43;;;;;;;21.18;59.11;101282.25;4978401;28;20131;-80
2022/10/22 01:17:08;;;;;;;14.52;7.72;;;;;;;21.42;60.19;101346.75;4992233;28;20139;-81
2022/10/22 01:20:06;;;;;;;12.15;7.20;;;;;;;21.32;60.54;101348.91;4997498;28;20535;-81
2022/10/22 01:23:04;;;;;;;14.63;7.53;;;;;;;21.27;60.29;101330.56;4997975;28;20058;-82
2022/10/22 01:25:36;;;;;;;15.05;6.70;;;;;;;21.29;60.49;101333.91;5000492;28;20520;-83
2022/10/22 01:28:26;;;;;;;16.77;6.57;;;;;;;21.54;60.29;101350.63;4997940;28;20051;-82
2022/10/22 01:30:56;;;;;;;15.68;7.32;;;;;;;21.57;60.35;101345.88;5001155;28;20107;-80
2022/10/22 01:33:27;;;;;;;13.30;6.40;;;;;;;21.02;60.49;101270.66;4995802;28;20107;-79
2022/10/22 01:35:54;;;;;;;17.40;7.82;;;;;;;21.40;60.26;101305.59;4980459;28;20508;-83
2022/10/22 01:38:23;;;;;;;16.85;6.75;;;;;;;21.27;60.56;101259.53;4976766;28;20135;-77
2022/10/22 01:41:00;;;;;;;10.85;7.00;;;;;;;21.46;60.30;101285.94;4961222;28;20049;-82
2022/10/22 01:43:27;;;;;;;13.77;7.68;;;;;;;21.39;60.48;101270.66;4977938;28;20054;-81
2022/10/22 01:46:03;;;;;;;13.88;6.65;;;;;;;21.34;60.29;101236.13;4988150;28;20093;-82
2022/10/22 01:48:52;;;;;;;13.05;7.15;;;;;;;21.09;60.36;101182.50;4982667;28;20246;-82
2022/10/22 01:51:26;;;;;;;11.93;7.22;;;;;;;21.45;60.07;101232.09;4996374;28;20056;-81
2022/10/22 01:53:56;;;;;;;19.23;6.60;;;;;;;21.30;59.83;101210.53;4997070;28;20485;-81
2022/10/22 01:56:30;;;;;;;14.88;6.82;;;;;;;21.37;60.55;101227.63;4998375;28;20081;-84
2022/10/22 01:59:07;;;;;;;11.77;7.10;;;;;;;21.29;60.49;101222.38;4997806;28;20143;-82
2022/10/22 02:02:03;;;;;;;20.83;7.30;;;;;;;20.86;61.13;101158.34;4998837;28;20049;-82
2022/10/22 02:04:47;;;;;;;15.75;6.88;;;;;;;19.87;61.51;101027.69;4999382;28;20061;-81
2022/10/22 02:07:18;;;;;;;13.43;7.35;;;;;;;20.97;62.00;101224.50;4998719;28;20531;-80
2022/10/22 02:09:46;;;;;;;16.92;6.68;;;;;;;20.89;61.95;101227.31;4995134;28;20053;-82
2022/10/22 02:12:15;;;;;;;16.27;7.35;;;;;;;20.75;62.14;101190.38;4998617;28;20076;-80
2022/10/22 02:14:48;;;;;;;13.07;6.97;;;;;;;20.67;61.80;101199.44;4981002;28;20057;-81
2022/10/22 02:17:18;;;;;;;15.80;7.03;;;;;;;20.63;61.90;101195.41;4997045;28;20056;-80
2022/10/22 02:20:02;;;;;;;12.20;7.15;;;;;;;20.70;61.92;101212.53;4996797;28;20076;-83
2022/10/22 02:22:29;;;;;;;12.50;7.75;;;;;;;20.96;62.16;101260.59;4981875;28;20565;-83
2022/10/22 02:24:56;;;;;;;13.98;8.13;;;;;;;20.66;62.16;101195.06;4997508;28;20057;-81
2022/10/22 02:27:37;;;;;;;21.33;6.90;;;;;;;20.84;62.71;101235.13;4997491;28;20485;-83
2022/10/22 02:30:10;;;;;;;17.92;7.80;;;;;;;20.71;62.88;101219.63;4981305;28;20068;-82
2022/10/22 02:33:00;;;;;;;17.73;7.75;;;;;;;20.37;62.92;101171.63;4998370;28;20082;-83
2022/10/22 02:35:29;;;;;;;13.18;6.97;;;;;;;20.30;62.75;101162.63;4979597;28;20064;-80
2022/10/22 02:38:03;;;;;;;15.30;6.57;;;;;;;20.50;62.67;101204.16;4993364;28;20065;-82
2022/10/22 02:40:30;;;;;;;12.07;6.90;;;;;;;20.12;62.73;101133.31;4979742;28;20587;-82
2022/10/22 02:42:57;;;;;;;12.80;6.63;;;;;;;20.62;62.39;101218.88;4977682;28;20058;-80
2022/10/22 02:45:24;;;;;;;14.93;6.55;;;;;;;20.71;61.54;101176.44;4979283;28;20054;-82
2022/10/22 02:47:53;;;;;;;15.55;6.60;;;;;;;21.20;60.85;101213.53;4999549;28;20199;-81
2022/10/22 02:50:20;;;;;;;15.93;6.35;;;;;;;21.17;60.92;101213.09;5001646;28;20107;-83
2022/10/22 02:52:46;;;;;;;11.23;6.22;;;;;;;21.35;60.66;101227.81;4999896;28;20174;-82
2022/10/22 02:55:13;;;;;;;20.40;6.03;;;;;;;21.42;59.88;101206.31;4995768;28;20248;-81
2022/10/22 02:57:40;;;;;;;10.77;5.22;;;;;;;21.60;59.86;101245.53;4996728;28;20054;-81
2022/10/22 03:00:10;;;;;;;15.43;6.03;;;;;;;21.55;59.60;101209.16;4998039;28;20068;-83
2022/10/22 03:02:37;;;;;;;9.10;4.97;;;;;;;21.64;59.45;101227.91;4999940;28;20366;-82
2022/10/22 03:05:06;;;;;;;14.20;5.75;;;;;;;21.79;59.08;101236.78;5013455;28;20972;-82
2022/10/22 03:07:35;;;;;;;9.20;5.50;;;;;;;21.61;59.11;101214.81;4997731;28;20057;-82
2022/10/22 03:10:04;;;;;;;13.40;6.00;;;;;;;21.41;59.33;101176.78;4998241;28;20060;-81
2022/10/22 03:12:32;;;;;;;11.05;4.70;;;;;;;21.91;59.15;101237.91;5013211;28;20053;-82
2022/10/22 03:14:59;;;;;;;14.82;6.25;;;;;;;21.65;59.44;101232.28;4999630;28;20305;-83
2022/10/22 03:17:26;;;;;;;16.77;6.18;;;;;;;21.90;59.10;101257.88;4998024;28;20053;-82
2022/10/22 03:19:53;;;;;;;10.70;4.97;;;;;;;21.87;58.66;101235.78;4981813;28;20050;-82
2022/10/22 03:22:25;;;;;;;12.00;5.63;;;;;;;21.90;59.10;101247.06;4983033;28;20061;-80
2022/10/22 03:24:57;;;;;;;10.15;5.43;;;;;;;21.95;58.64;101232.97;4985125;28;20372;-83
2022/10/22 03:27:27;;;;;;;12.05;6.05;;;;;;;21.60;59.15;101159.09;4985515;28;20543;-82
2022/10/22 03:29:56;;;;;;;15.57;6.10;;;;;;;21.66;59.42;101179.94;4983028;28;20052;-82
2022/10/22 03:32:22;;;;;;;12.15;5.90;;;;;;;21.76;59.98;101207.44;4982539;28;20058;-82
2022/10/22 03:34:56;;;;;;;11.43;6.10;;;;;;;21.57;60.46;101198.13;4979783;28;20056;-81
2022/10/22 03:37:27;;;;;;;13.20;6.22;;;;;;;21.68;60.33;101199.50;4995566;28;20511;-80
2022/10/22 03:39:54;;;;;;;13.93;5.70;;;;;;;21.63;60.15;101177.63;4961089;28;20054;-81
2022/10/22 03:42:22;;;;;;;9.50;5.28;;;;;;;21.82;59.89;101197.72;4977655;28;20560;-82
2022/10/22 03:44:51;;;;;;;13.73;6.40;;;;;;;21.41;60.44;101156.03;4964431;28;20505;-82
2022/10/22 03:47:18;;;;;;;10.30;5.82;;;;;;;21.77;60.09;101206.41;4983089;28;20599;-82
2022/10/22 03:49:45;;;;;;;10.82;5.40;;;;;;;21.71;60.29;101199.91;4996342;28;20476;-82
2022/10/22 03:52:13;;;;;;;11.48;5.70;;;;;;;21.65;60.12;101202.56;5016203;28;20045;-82
2022/10/22 03:54:41;;;;;;;13.93;5.90;;;;;;;21.98;59.50;101211.75;4990256;28;20053;-81
2022/10/22 03:57:09;;;;;;;10.50;5.13;;;;;;;21.59;58.29;101079.09;4980838;28;20248;-82
2022/10/22 03:59:41;;;;;;;12.25;5.22;;;;;;;21.77;58.93;101146.94;4979645;28;20775;-80
2022/10/22 04:02:12;;;;;;;12.57;5.63;;;;;;;22.29;58.83;101202.44;4993772;28;20082;-82
2022/10/22 04:04:39;;;;;;;13.65;5.45;;;;;;;22.04;59.27;101206.59;5000573;28;20056;-82
2022/10/22 04:07:07;;;;;;;15.10;5.70;;;;;;;22.07;59.34;101204.34;4997178;28;20050;-82
2022/10/22 04:09:40;;;;;;;14.80;5.53;;;;;;;21.55;59.42;101124.53;4983897;28;20049;-82
2022/10/22 04:12:08;;;;;;;9.45;5.18;;;;;;;21.89;59.27;101172.41;4984185;28;20049;-83
2022/10/22 04:14:35;;;;;;;11.93;5.50;;;;;;;22.05;59.15;101194.78;5001680;28;20063;-83
2022/10/22 04:17:02;;;;;;;19.40;5.55;;;;;;;21.93;59.86;101202.59;5002416;28;20165;-82
2022/10/22 04:19:29;;;;;;;12.88;5.07;;;;;;;21.63;60.05;101174.94;4982985;28;20399;-81
2022/10/22 04:21:59;;;;;;;13.07;5.28;;;;;;;21.80;59.93;101189.81;4998305;28;20143;-81
2022/10/22 04:24:26;;;;;;;10.32;4.95;;;;;;;21.84;59.92;101198.34;4983396;28;20049;-82
2022/10/22 04:26:53;;;;;;;12.15;5.05;;;;;;;21.63;59.59;101142.50;5000170;28;20080;-84
2022/10/22 04:29:30;;;;;;;19.65;5.80;;;;;;;21.86;59.66;101202.53;4898832;28;20166;-80
2022/10/22 04:31:56;;;;;;;16.10;5.13;;;;;;;21.87;59.95;101225.84;4958382;28;20058;-81
2022/10/22 04:34:26;;;;;;;17.02;5.80;;;;;;;21.82;60.28;101222.88;5018897;28;20053;-79
2022/10/22 04:36:53;;;;;;;12.02;5.07;;;;;;;21.40;60.30;101159.75;5015728;28;20577;-77
2022/10/22 04:39:19;;;;;;;8.80;4.60;;;;;;;21.73;60.15;101207.84;5014133;28;20049;-81
2022/10/22 04:41:46;;;;;;;14.07;4.82;;;;;;;22.03;59.62;101213.88;5000751;28;20231;-79
2022/10/22 04:44:13;;;;;;;14.10;5.18;;;;;;;21.98;59.52;101190.13;4996135;28;20127;-82
2022/10/22 04:46:49;;;;;;;12.77;4.90;;;;;;;22.14;59.74;101215.22;4986801;28;20626;-81
2022/10/22 04:49:16;;;;;;;16.02;4.88;;;;;;;22.05;59.91;101208.28;5001206;28;20057;-82
2022/10/22 04:51:42;;;;;;;16.45;5.55;;;;;;;22.07;59.58;101192.72;5008393;28;20552;-82
2022/10/22 04:54:09;;;;;;;13.20;4.70;;;;;;;21.67;60.17;101151.88;5002860;28;20052;-84
2022/10/22 04:56:36;;;;;;;16.33;5.32;;;;;;;22.06;59.61;101169.41;5000034;28;20378;-82
2022/10/22 04:59:06;;;;;;;17.25;5.70;;;;;;;22.05;59.58;101159.63;4984128;28;20594;-83
2022/10/22 05:01:35;;;;;;;20.75;5.82;;;;;;;21.95;59.98;101155.41;4981977;28;20421;-84
2022/10/22 05:04:12;;;;;;;11.02;5.72;;;;;;;22.06;59.74;101147.75;4999642;28;20061;-82
2022/10/22 05:06:39;;;;;;;21.67;5.35;;;;;;;22.02;60.13;101168.97;4996885;28;20531;-82
2022/10/22 05:09:10;;;;;;;11.45;4.95;;;;;;;22.16;59.40;101140.13;4983063;28;20061;-83
2022/10/22 05:11:40;;;;;;;;;;;;;;;22.15;59.76;101162.81;4982393;28;20154;-81
2022/10/22 05:14:08;;;;;;;16.17;5.93;;;;;;;22.19;59.60;101169.50;4982943;28;19929;-83
2022/10/22 05:16:36;;;;;;;15.95;5.65;;;;;;;21.59;59.55;101081.78;4999952;28;20136;-83
2022/10/22 05:19:04;;;;;;;14.70;5.22;;;;;;;21.47;60.19;101109.31;4999071;28;20178;-83
2022/10/22 05:21:31;;;;;;;10.60;5.45;;;;;;;22.19;59.46;101180.31;4980880;28;20081;-83
2022/10/22 05:23:59;;;;;;;12.82;5.82;;;;;;;22.17;59.16;101177.78;4982623;28;20166;-82
2022/10/22 05:26:27;;;;;;;14.95;5.22;;;;;;;22.16;59.38;101177.97;5015057;28;20350;-83
2022/10/22 05:28:54;;;;;;;14.70;5.90;;;;;;;22.05;59.60;101156.91;5016074;28;20286;-82
2022/10/22 05:31:21;;;;;;;14.80;5.40;;;;;;;21.58;59.45;101080.09;4998610;28;20429;-84
2022/10/22 05:33:47;;;;;;;14.73;5.82;;;;;;;21.99;59.04;101120.69;4981901;28;20144;-83
2022/10/22 05:36:17;;;;;;;19.70;5.78;;;;;;;22.22;58.95;101143.94;4982938;28;20344;-83
2022/10/22 05:38:44;;;;;;;15.18;5.40;;;;;;;21.97;59.11;101107.38;4999638;28;20058;-85
2022/10/22 05:41:26;;;;;;;15.65;5.60;;;;;;;22.06;59.02;101109.91;4999633;28;20349;-83
2022/10/22 05:43:55;;;;;;;17.08;5.32;;;;;;;22.43;58.24;101149.25;4982786;28;20053;-84
2022/10/22 05:46:24;;;;;;;13.82;5.22;;;;;;;22.33;58.55;101149.63;4997481;28;20861;-83
2022/10/22 05:49:03;;;;;;;12.55;5.68;;;;;;;21.66;58.30;101023.22;4982209;28;20188;-84
2022/10/22 05:51:32;;;;;;;16.63;5.88;;;;;;;22.47;57.97;101126.16;5001991;28;20053;-83
2022/10/22 05:54:02;;;;;;;17.50;4.70;;;;;;;21.68;58.53;101045.47;4980738;28;20576;-82
2022/10/22 05:56:32;;;;;;;12.63;5.38;;;;;;;22.16;58.65;101129.31;4998751;28;20159;-82
2022/10/22 05:59:00;;;;;;;13.60;5.72;;;;;;;22.42;58.62;101157.56;4998151;28;20444;-80
2022/10/22 06:01:34;;;;;;;16.38;6.00;;;;;;;22.44;58.39;101150.09;4983630;28;20041;-84
2022/10/22 06:04:06;;;;;;;20.00;5.53;;;;;;;22.08;58.57;101102.44;4996566;28;20628;-83
2022/10/22 06:06:47;;;;;;;15.65;5.65;;;;;;;22.46;58.43;101148.84;4994892;28;20065;-81
2022/10/22 06:09:18;;;;;;;16.50;5.53;;;;;;;22.23;58.94;101124.78;4980365;28;20436;-82
2022/10/22 06:11:46;;;;;;;13.50;5.47;;;;;;;22.55;58.42;101157.59;4999775;28;20046;-82
2022/10/22 06:14:13;;;;;;;20.90;5.25;;;;;;;22.38;58.97;101157.16;5000788;28;20493;-84
2022/10/22 06:16:40;;;;;;;13.32;5.30;;;;;;;22.58;58.41;101141.00;5000058;28;20046;-84
2022/10/22 06:19:11;;;;;;;21.50;6.45;;;;;;;22.58;58.65;101165.34;4981748;28;20434;-81
2022/10/22 06:21:39;;;;;;;12.73;5.70;;;;;;;22.51;59.10;101129.31;4997577;28;20045;-82
2022/10/22 06:24:06;;;;;;;20.58;5.75;;;;;;;22.47;58.82;101130.72;4982665;28;20080;-84
2022/10/22 06:26:33;;;;;;;22.63;6.03;;;;;;;22.44;58.86;101136.56;5001816;28;20053;-83
2022/10/22 06:29:00;;;;;;;22.13;6.00;;;;;;;22.12;59.04;101076.69;4989637;28;20077;-85
2022/10/22 06:31:28;;;;;;;10.88;5.22;;;;;;;22.60;58.66;101130.81;5007344;28;20307;-83
2022/10/22 06:33:58;;;;;;;8.07;5.47;;;;;;;22.53;58.46;101127.25;5005138;28;20200;-85
2022/10/22 06:36:29;;;;;;;13.10;5.57;;;;;;;22.29;58.84;101099.66;5000553;28;20053;-84
2022/10/22 06:38:56;;;;;;;11.45;5.60;;;;;;;22.63;59.10;101167.44;4981149;28;20068;-85
2022/10/22 06:41:23;;;;;;;11.68;5.95;;;;;;;22.73;58.61;101166.00;4998309;28;20428;-82
2022/10/22 06:44:00;;;;;;;19.17;6.38;;;;;;;22.63;58.92;101168.28;4995960;28;20367;-82
2022/10/22 06:46:26;;;;;;;;;;;;;;;22.71;58.83;101168.09;4981130;28;20123;-83
2022/10/22 06:48:56;;;;;;;17.45;6.38;;;;;;;22.18;59.03;101103.72;4997638;28;19932;-85
2022/10/22 06:51:23;;;;;;;13.27;6.03;;;;;;;22.70;59.03;101188.06;5007282;28;20192;-82
2022/10/22 06:53:54;;;;;;;14.60;5.50;;;;;;;22.68;59.06;101176.63;5001101;28;20166;-85
2022/10/22 06:56:23;;;;;;;13.77;5.78;;;;;;;22.72;58.91;101175.19;4999731;28;20061;-86
2022/10/22 06:58:53;;;;;;;12.35;6.53;;;;;;;22.65;59.45;101195.97;5004296;28;20512;-83
2022/10/22 07:01:22;;;;;;;13.70;5.68;;;;;;;22.75;59.30;101211.84;4999951;28;20158;-86
2022/10/22 07:03:50;;;;;;;12.57;6.30;;;;;;;22.72;59.14;101202.25;4998899;28;20139;-84
2022/10/22 07:06:18;;;;;;;11.85;6.00;;;;;;;22.68;58.77;101200.97;5002069;28;20076;-84
2022/10/22 07:08:45;;;;;;;9.00;5.53;;;;;;;22.76;58.94;101208.91;5010897;28;20243;-83
2022/10/22 07:11:21;;;;;;;17.23;6.25;;;;;;;22.80;59.38;101214.75;5000594;28;20068;-85
2022/10/22 07:13:48;;;;;;;16.83;5.97;;;;;;;22.91;58.79;101216.03;4997539;28;20618;-82
2022/10/22 07:16:18;;;;;;;13.32;5.20;;;;;;;22.21;58.93;101115.22;4983555;28;20057;-87
2022/10/22 07:18:48;;;;;;;7.13;4.85;;;;;;;22.85;59.01;101227.69;4982718;28;20057;-80
2022/10/22 07:21:19;;;;;;;10.35;5.50;;;;;;;22.74;59.53;101220.97;4998772;28;20080;-83
2022/10/22 07:23:48;;;;;;;14.05;5.53;;;;;;;22.55;59.51;101196.34;5001200;28;20877;-83
2022/10/22 07:26:16;;;;;;;9.88;5.05;;;;;;;22.47;59.76;101191.09;4999864;28;20489;-86
2022/10/22 07:28:43;;;;;;;9.35;5.35;;;;;;;22.54;60.03;101221.72;5001366;28;20053;-85
2022/10/22 07:31:14;;;;;;;10.63;5.30;;;;;;;22.38;59.95;101182.31;5000671;28;20536;-84
2022/10/22 07:33:43;;;;;;;8.80;5.57;;;;;;;22.42;59.78;101173.78;4982783;28;20413;-83
2022/10/22 07:36:20;;;;;;;8.80;5.15;;;;;;;22.50;59.68;101193.41;4985853;28;20309;-85
2022/10/22 07:38:52;;;;;;;10.32;4.65;;;;;;;22.75;59.59;101218.06;5006641;28;20281;-85
2022/10/22 07:41:19;;;;;;;8.65;5.05;;;;;;;22.83;59.04;101196.22;4982486;28;20042;-84
2022/10/22 07:43:49;;;;;;;5.60;4.45;;;;;;;22.87;59.54;101231.88;4998233;28;20206;-83
2022/10/22 07:46:16;;;;;;;10.70;4.30;;;;;;;22.79;59.72;101246.41;4998000;28;20491;-82
2022/10/22 07:48:43;;;;;;;8.80;4.88;;;;;;;22.58;60.05;101216.75;5000079;28;20057;-84
2022/10/22 07:51:17;;;;;;;9.23;4.75;;;;;;;22.75;60.01;101234.31;4983704;28;20280;-84
2022/10/22 07:53:47;;;;;;;8.52;4.70;;;;;;;22.70;59.77;101209.72;4982491;28;20133;-81
2022/10/22 07:56:14;;;;;;;8.45;5.20;;;;;;;22.76;59.65;101224.31;4997942;28;20053;-83
2022/10/22 07:58:44;;;;;;;14.15;6.25;;;;;;;22.67;59.40;101218.25;4980945;28;20128;-85
2022/10/22 08:01:11;;;;;;;13.15;5.57;;;;;;;22.13;59.53;101122.44;4983730;28;20053;-84
2022/10/22 08:03:40;;;;;;;18.33;5.82;;;;;;;22.55;59.71;101198.19;4993637;28;20057;-84
2022/10/22 08:06:11;;;;;;;10.95;4.85;;;;;;;22.00;59.75;101126.94;4980129;28;20477;-82
2022/10/22 08:08:38;;;;;;;14.85;5.85;;;;;;;22.24;59.97;101155.41;4999801;28;20357;-83
2022/10/22 08:11:05;;;;;;;16.95;5.28;;;;;;;21.70;59.94;101062.31;4996135;28;20075;-80
2022/10/22 08:13:32;;;;;;;15.00;5.63;;;;;;;22.43;59.52;101162.78;4980714;28;20055;-83
2022/10/22 08:15:59;;;;;;;8.05;5.13;;;;;;;22.71;59.57;101222.22;4982322;28;20148;-81
2022/10/22 08:18:28;;;;;;;12.65;5.13;;;;;;;22.84;59.82;101253.91;5000361;28;20076;-85
2022/10/22 08:20:55;;;;;;;8.45;4.90;;;;;;;23.04;59.71;101270.28;4996648;28;20049;-85
2022/10/22 08:23:23;;;;;;;12.85;6.07;;;;;;;22.32;59.30;101147.94;4983459;28;20548;-85
2022/10/22 08:25:56;;;;;;;15.02;5.93;;;;;;;22.61;59.73;101206.34;4985726;28;20054;-87
2022/10/22 08:28:28;;;;;;;9.82;5.60;;;;;;;23.07;59.75;101269.88;5000922;28;20049;-82
2022/10/22 08:30:55;;;;;;;11.85;5.65;;;;;;;22.50;59.79;101203.38;5003798;28;20265;-84
2022/10/22 08:33:23;;;;;;;7.28;5.07;;;;;;;22.85;59.87;101233.09;5001691;28;20135;-83
2022/10/22 08:35:51;;;;;;;16.40;5.63;;;;;;;23.17;59.66;101270.31;5000882;28;20175;-82
2022/10/22 08:38:20;;;;;;;9.73;4.95;;;;;;;22.94;60.11;101237.31;4985457;28;20177;-82
2022/10/22 08:41:02;;;;;;;11.93;5.22;;;;;;;22.79;59.70;101200.41;5002623;28;20176;-84
2022/10/22 08:44:01;;;;;;;12.00;5.78;;;;;;;23.14;59.18;101221.97;4991462;28;20056;-83
2022/10/22 08:47:39;;;;;;;11.30;5.97;;;;;;;22.97;59.42;101193.59;5003365;28;20219;-84
2022/10/22 08:50:11;;;;;;;8.30;5.38;;;;;;;23.12;59.00;101202.38;4881868;29;20469;-85
2022/10/22 08:52:40;;;;;;;;;;;;;;;23.45;58.72;101256.66;4966644;28;20600;-83
2022/10/22 08:55:13;;;;;;;10.77;5.53;;;;;;;23.40;58.94;101261.00;4993088;28;19987;-84
2022/10/22 08:58:08;;;;;;;15.15;5.18;;;;;;;23.08;58.63;101201.13;4999882;28;20053;-87
2022/10/22 09:00:54;;;;;;;10.35;6.00;;;;;;;22.93;58.22;101149.00;4999923;28;20084;-82
2022/10/22 09:03:41;;;;;;;15.23;6.88;;;;;;;23.42;58.16;101229.13;4979886;28;21023;-82
2022/10/22 09:06:32;;;;;;;15.10;6.45;;;;;;;23.55;58.03;101244.56;4998498;28;20156;-83
2022/10/22 09:09:14;;;;;;;13.85;6.45;;;;;;;23.57;58.50;101264.16;4995890;28;20503;-83
2022/10/22 09:11:48;;;;;;;13.35;6.00;;;;;;;23.46;58.38;101235.78;4992271;28;20556;-82
2022/10/22 09:14:24;;;;;;;16.90;6.50;;;;;;;23.25;58.32;101213.28;4995969;28;20171;-83
2022/10/22 09:17:10;;;;;;;14.27;6.32;;;;;;;23.60;58.08;101277.31;4982036;28;20053;-83
2022/10/22 09:20:22;;;;;;;10.65;6.30;;;;;;;23.58;58.34;101280.22;5012465;28;20107;-83
2022/10/22 09:22:59;;;;;;;26.77;7.07;;;;;;;23.49;58.50;101267.88;4996192;28;20745;-84
2022/10/22 09:25:29;;;;;;;20.40;8.05;;;;;;;23.66;58.18;101277.28;4996930;28;20143;-83
2022/10/22 09:27:59;;;;;;;13.38;7.10;;;;;;;23.04;57.88;101175.50;4997187;28;20563;-83
2022/10/22 09:30:28;;;;;;;12.35;7.15;;;;;;;23.30;57.95;101211.78;4983616;28;20296;-83
2022/10/22 09:33:04;;;;;;;15.80;7.68;;;;;;;23.43;58.12;101244.34;5003350;28;20301;-82
2022/10/22 09:35:49;;;;;;;17.00;7.55;;;;;;;23.71;57.43;101252.28;4996866;28;20045;-82
2022/10/22 09:38:19;;;;;;;16.60;7.32;;;;;;;23.93;57.26;101263.78;4993527;28;20049;-82
2022/10/22 09:40:51;;;;;;;17.95;8.20;;;;;;;23.99;56.88;101278.41;5001781;28;20049;-84
2022/10/22 09:43:26;;;;;;;21.08;7.80;;;;;;;23.85;56.61;101250.47;4988688;28;20051;-84
2022/10/22 09:45:59;;;;;;;16.48;7.57;;;;;;;24.07;56.46;101276.31;4986498;28;20136;-84
2022/10/22 09:48:33;;;;;;;19.92;7.50;;;;;;;24.04;56.64;101284.88;4991850;28;20588;-83
2022/10/22 09:51:20;;;;;;;20.38;7.57;;;;;;;23.94;57.00;101270.91;4988344;28;20080;-82
2022/10/22 09:53:56;;;;;;;23.33;8.05;;;;;;;24.06;56.52;101282.78;4989154;28;20049;-84
2022/10/22 09:56:34;;;;;;;26.92;9.13;;;;;;;23.97;56.10;101262.34;4993077;28;20057;-82
2022/10/22 09:59:14;;;;;;;15.57;7.28;;;;;;;24.02;56.58;101273.38;4992335;28;20162;-84
2022/10/22 10:01:44;;;;;;;14.93;7.85;;;;;;;24.04;56.80;101293.00;4989234;28;20061;-83
2022/10/22 10:04:13;;;;;;;19.27;8.25;;;;;;;23.67;57.15;101254.59;4990926;28;20180;-83
2022/10/22 10:06:43;;;;;;;24.95;7.72;;;;;;;24.22;56.00;101281.50;4987009;28;20722;-83
2022/10/22 10:09:21;;;;;;;20.75;7.55;;;;;;;24.13;56.13;101281.94;4967594;28;20057;-83
2022/10/22 10:12:14;;;;;;;20.77;8.57;;;;;;;24.16;56.21;101290.50;4983965;28;20049;-83
2022/10/22 10:14:53;;;;;;;18.80;7.80;;;;;;;24.00;55.97;101253.78;4956176;28;20148;-82
2022/10/22 10:18:01;;;;;;;16.35;6.90;;;;;;;24.36;55.24;101295.91;4984165;28;20622;-83
2022/10/22 10:21:03;;;;;;;15.55;7.22;;;;;;;24.41;55.15;101293.38;4952908;28;20050;-84
2022/10/22 10:23:40;;;;;;;21.13;8.23;;;;;;;24.24;55.09;101254.19;4989206;28;20551;-83
2022/10/22 10:26:22;;;;;;;19.50;7.47;;;;;;;24.40;54.99;101278.16;4993150;28;20550;-80
2022/10/22 10:29:09;;;;;;;15.48;6.72;;;;;;;24.33;55.26;101280.06;4995802;28;20055;-82
2022/10/22 10:31:53;;;;;;;19.55;7.70;;;;;;;24.36;55.24;101278.78;4992205;28;20548;-82
2022/10/22 10:34:45;;;;;;;18.20;8.55;;;;;;;24.67;54.72;101302.56;4987678;28;20053;-83
2022/10/22 10:37:15;;;;;;;18.60;7.60;;;;;;;24.64;54.89;101286.72;4982861;28;20054;-83
2022/10/22 10:39:44;;;;;;;16.83;7.93;;;;;;;24.57;54.86;101302.19;4974495;28;20092;-82
2022/10/22 10:42:34;;;;;;;15.27;7.10;;;;;;;24.67;54.41;101302.56;4981430;28;20084;-83
2022/10/22 10:45:34;;;;;;;20.63;8.70;;;;;;;24.62;55.01;101296.94;4960164;28;20710;-82
2022/10/22 10:48:25;;;;;;;20.33;7.53;;;;;;;24.77;54.29;101308.38;4951996;28;20061;-82
2022/10/22 10:51:08;;;;;;;25.83;7.40;;;;;;;24.75;54.12;101302.31;4976014;28;20053;-81
2022/10/22 10:53:54;;;;;;;19.85;8.50;;;;;;;24.58;54.47;101282.13;4989455;28;20575;-82
2022/10/22 10:56:30;;;;;;;15.25;7.40;;;;;;;24.68;54.74;101320.50;4965151;28;20525;-83
2022/10/22 10:59:25;;;;;;;18.40;7.22;;;;;;;24.18;55.48;101244.19;4996095;28;20053;-82
2022/10/22 11:02:27;;;;;;;20.90;8.15;;;;;;;23.97;55.48;101220.84;4990358;28;20182;-81
2022/10/22 11:05:12;;;;;;;15.38;6.80;;;;;;;24.53;55.34;101280.88;4996770;28;20115;-82
2022/10/22 11:07:47;;;;;;;19.70;7.47;;;;;;;24.63;55.05;101306.75;4988665;28;20623;-83
2022/10/22 11:10:35;;;;;;;16.75;7.25;;;;;;;24.65;54.69;101313.63;4977672;28;20050;-82
2022/10/22 11:13:17;;;;;;;17.92;6.80;;;;;;;24.59;54.66;101281.06;4990223;28;20356;-81
2022/10/22 11:15:55;;;;;;;17.80;7.32;;;;;;;24.49;54.45;101249.78;4985995;28;20053;-81
2022/10/22 11:18:36;;;;;;;19.85;8.48;;;;;;;24.72;54.53;101309.00;4968041;28;20140;-82
2022/10/22 11:21:33;;;;;;;22.52;7.03;;;;;;;24.86;54.34;101314.44;4969692;28;20142;-81
2022/10/22 11:24:20;;;;;;;17.95;7.75;;;;;;;24.86;54.64;101319.84;4993094;28;21044;-81
2022/10/22 11:26:57;;;;;;;18.05;6.78;;;;;;;25.06;53.56;101311.63;4985528;28;20493;-82
2022/10/22 11:29:32;;;;;;;15.48;6.55;;;;;;;25.07;53.49;101303.25;4987742;28;20063;-82
2022/10/22 11:32:02;;;;;;;15.20;6.85;;;;;;;24.53;53.60;101221.16;4970600;28;20630;-83
2022/10/22 11:34:47;;;;;;;22.70;6.75;;;;;;;25.06;53.46;101295.34;4985075;28;20535;-81
2022/10/22 11:37:15;;;;;;;11.30;6.50;;;;;;;24.95;53.59;101286.81;4970596;28;20069;-81
2022/10/22 11:39:52;;;;;;;20.80;7.25;;;;;;;24.89;53.32;101267.81;4967750;28;20057;-83
2022/10/22 11:42:33;;;;;;;16.10;7.00;;;;;;;25.12;53.04;101308.03;4971462;28;20136;-81
2022/10/22 11:45:01;;;;;;;14.38;6.65;;;;;;;25.16;52.71;101306.56;4978194;28;20569;-82
2022/10/22 11:47:50;;;;;;;14.25;6.65;;;;;;;24.80;52.90;101231.91;4986197;28;20080;-81